sensor_id;sensor_type;location;lat;lon;timestamp;pressure;altitude;pressure_sealevel;temperature;humidity
58367;BME280;57745;42.524;12.052;2024-03-29T00:00:52;96181.72;;;16.14;70.34
58367;BME280;57745;42.524;12.052;2024-03-29T00:03:18;96183.31;;;16.21;69.57
58367;BME280;57745;42.524;12.052;2024-03-29T00:05:44;96184.56;;;16.35;69.34
58367;BME280;57745;42.524;12.052;2024-03-29T00:08:09;96194.00;;;16.19;69.82
58367;BME280;57745;42.524;12.052;2024-03-29T00:10:34;96187.81;;;16.09;69.89
58367;BME280;57745;42.524;12.052;2024-03-29T00:13:00;96197.19;;;16.17;70.04
58367;BME280;57745;42.524;12.052;2024-03-29T00:15:25;96199.94;;;16.17;69.76
58367;BME280;57745;42.524;12.052;2024-03-29T00:17:51;96202.19;;;16.19;69.78
58367;BME280;57745;42.524;12.052;2024-03-29T00:20:16;96197.44;;;16.20;70.01
58367;BME280;57745;42.524;12.052;2024-03-29T00:22:42;96197.06;;;16.12;70.02
58367;BME280;57745;42.524;12.052;2024-03-29T00:25:08;96193.50;;;16.21;69.81
58367;BME280;57745;42.524;12.052;2024-03-29T00:27:33;96203.25;;;16.36;69.08
58367;BME280;57745;42.524;12.052;2024-03-29T00:29:59;96196.50;;;16.08;69.56
58367;BME280;57745;42.524;12.052;2024-03-29T00:32:25;96195.00;;;16.07;69.99
58367;BME280;57745;42.524;12.052;2024-03-29T00:34:52;96199.38;;;16.28;68.87
58367;BME280;57745;42.524;12.052;2024-03-29T00:37:18;96195.97;;;16.19;69.27
58367;BME280;57745;42.524;12.052;2024-03-29T00:39:44;96186.50;;;16.20;69.22
58367;BME280;57745;42.524;12.052;2024-03-29T00:42:09;96185.59;;;16.23;69.21
58367;BME280;57745;42.524;12.052;2024-03-29T00:44:38;96194.06;;;16.25;69.03
58367;BME280;57745;42.524;12.052;2024-03-29T00:47:04;96192.53;;;16.09;69.62
58367;BME280;57745;42.524;12.052;2024-03-29T00:49:30;96196.91;;;16.15;69.40
58367;BME280;57745;42.524;12.052;2024-03-29T00:51:56;96200.34;;;16.01;69.64
58367;BME280;57745;42.524;12.052;2024-03-29T00:54:21;96201.50;;;16.09;69.39
58367;BME280;57745;42.524;12.052;2024-03-29T00:56:49;96203.00;;;16.10;69.10
58367;BME280;57745;42.524;12.052;2024-03-29T00:59:14;96210.66;;;16.21;69.02
58367;BME280;57745;42.524;12.052;2024-03-29T01:01:40;96212.38;;;16.19;68.76
58367;BME280;57745;42.524;12.052;2024-03-29T01:04:05;96205.28;;;16.12;69.05
58367;BME280;57745;42.524;12.052;2024-03-29T01:06:31;96197.81;;;16.12;69.23
58367;BME280;57745;42.524;12.052;2024-03-29T01:08:56;96206.03;;;16.12;69.30
58367;BME280;57745;42.524;12.052;2024-03-29T01:11:22;96202.94;;;16.20;68.80
58367;BME280;57745;42.524;12.052;2024-03-29T01:13:47;96202.72;;;16.08;69.35
58367;BME280;57745;42.524;12.052;2024-03-29T01:16:13;96211.91;;;15.96;69.76
58367;BME280;57745;42.524;12.052;2024-03-29T01:18:38;96218.97;;;16.12;69.40
58367;BME280;57745;42.524;12.052;2024-03-29T01:21:04;96224.94;;;16.25;68.64
58367;BME280;57745;42.524;12.052;2024-03-29T01:23:29;96219.06;;;16.17;68.93
58367;BME280;57745;42.524;12.052;2024-03-29T01:25:55;96219.50;;;16.40;68.18
58367;BME280;57745;42.524;12.052;2024-03-29T01:28:20;96219.38;;;16.34;68.24
58367;BME280;57745;42.524;12.052;2024-03-29T01:30:53;96211.28;;;16.40;67.89
58367;BME280;57745;42.524;12.052;2024-03-29T01:33:20;96216.34;;;16.32;68.08
58367;BME280;57745;42.524;12.052;2024-03-29T01:35:46;96222.59;;;16.33;68.20
58367;BME280;57745;42.524;12.052;2024-03-29T01:38:12;96217.59;;;16.31;68.35
58367;BME280;57745;42.524;12.052;2024-03-29T01:40:37;96224.31;;;16.30;68.15
58367;BME280;57745;42.524;12.052;2024-03-29T01:43:03;96228.72;;;16.28;67.74
58367;BME280;57745;42.524;12.052;2024-03-29T01:45:29;96231.47;;;16.28;67.92
58367;BME280;57745;42.524;12.052;2024-03-29T01:47:55;96224.09;;;16.34;67.57
58367;BME280;57745;42.524;12.052;2024-03-29T01:50:21;96226.47;;;16.41;67.34
58367;BME280;57745;42.524;12.052;2024-03-29T01:52:47;96226.28;;;16.30;67.86
58367;BME280;57745;42.524;12.052;2024-03-29T01:55:14;96225.41;;;16.24;67.79
58367;BME280;57745;42.524;12.052;2024-03-29T01:57:40;96232.38;;;16.25;68.15
58367;BME280;57745;42.524;12.052;2024-03-29T02:00:06;96233.72;;;16.29;67.97
58367;BME280;57745;42.524;12.052;2024-03-29T02:02:33;96228.56;;;16.07;68.90
58367;BME280;57745;42.524;12.052;2024-03-29T02:04:59;96235.34;;;16.36;67.83
58367;BME280;57745;42.524;12.052;2024-03-29T02:07:25;96233.81;;;16.35;67.85
58367;BME280;57745;42.524;12.052;2024-03-29T02:09:50;96237.84;;;16.25;67.94
58367;BME280;57745;42.524;12.052;2024-03-29T02:12:16;96241.78;;;16.09;68.91
58367;BME280;57745;42.524;12.052;2024-03-29T02:14:41;96251.47;;;16.34;67.78
58367;BME280;57745;42.524;12.052;2024-03-29T02:17:08;96249.09;;;16.27;67.88
58367;BME280;57745;42.524;12.052;2024-03-29T02:19:34;96250.28;;;16.11;68.37
58367;BME280;57745;42.524;12.052;2024-03-29T02:22:01;96256.38;;;16.30;68.04
58367;BME280;57745;42.524;12.052;2024-03-29T02:24:30;96260.56;;;16.40;67.41
58367;BME280;57745;42.524;12.052;2024-03-29T02:26:56;96266.16;;;16.22;67.77
58367;BME280;57745;42.524;12.052;2024-03-29T02:29:23;96260.13;;;16.17;67.93
58367;BME280;57745;42.524;12.052;2024-03-29T02:31:48;96256.94;;;16.34;67.34
58367;BME280;57745;42.524;12.052;2024-03-29T02:34:14;96259.53;;;16.13;68.17
58367;BME280;57745;42.524;12.052;2024-03-29T02:36:40;96259.63;;;15.95;69.20
58367;BME280;57745;42.524;12.052;2024-03-29T02:39:07;96257.44;;;15.85;69.67
58367;BME280;57745;42.524;12.052;2024-03-29T02:41:32;96261.44;;;15.98;69.16
58367;BME280;57745;42.524;12.052;2024-03-29T02:43:58;96264.66;;;15.97;69.15
58367;BME280;57745;42.524;12.052;2024-03-29T02:46:23;96256.63;;;15.93;69.59
58367;BME280;57745;42.524;12.052;2024-03-29T02:48:49;96256.44;;;15.97;69.39
58367;BME280;57745;42.524;12.052;2024-03-29T02:51:14;96267.22;;;16.00;69.70
58367;BME280;57745;42.524;12.052;2024-03-29T02:53:40;96256.28;;;16.00;69.75
58367;BME280;57745;42.524;12.052;2024-03-29T02:56:05;96261.75;;;16.00;69.76
58367;BME280;57745;42.524;12.052;2024-03-29T02:58:36;96252.38;;;15.92;70.06
58367;BME280;57745;42.524;12.052;2024-03-29T03:01:08;96255.06;;;16.01;70.05
58367;BME280;57745;42.524;12.052;2024-03-29T03:03:34;96253.84;;;16.02;69.86
58367;BME280;57745;42.524;12.052;2024-03-29T03:06:00;96262.22;;;15.99;69.86
58367;BME280;57745;42.524;12.052;2024-03-29T03:08:25;96256.88;;;16.04;70.14
58367;BME280;57745;42.524;12.052;2024-03-29T03:11:09;96264.47;;;16.00;69.99
58367;BME280;57745;42.524;12.052;2024-03-29T03:13:35;96258.47;;;15.87;70.78
58367;BME280;57745;42.524;12.052;2024-03-29T03:16:00;96264.94;;;15.99;70.23
58367;BME280;57745;42.524;12.052;2024-03-29T03:18:26;96276.47;;;16.03;69.73
58367;BME280;57745;42.524;12.052;2024-03-29T03:20:55;96279.28;;;16.17;69.48
58367;BME280;57745;42.524;12.052;2024-03-29T03:23:23;96275.56;;;16.06;70.04
58367;BME280;57745;42.524;12.052;2024-03-29T03:26:02;96269.03;;;16.03;70.29
58367;BME280;57745;42.524;12.052;2024-03-29T03:28:31;96268.84;;;16.07;69.98
58367;BME280;57745;42.524;12.052;2024-03-29T03:30:56;96280.59;;;15.98;70.42
58367;BME280;57745;42.524;12.052;2024-03-29T03:33:22;96270.56;;;15.95;70.56
58367;BME280;57745;42.524;12.052;2024-03-29T03:35:48;96268.31;;;16.17;69.70
58367;BME280;57745;42.524;12.052;2024-03-29T03:38:14;96273.97;;;16.14;69.66
58367;BME280;57745;42.524;12.052;2024-03-29T03:40:40;96272.00;;;16.14;69.52
58367;BME280;57745;42.524;12.052;2024-03-29T03:43:06;96268.38;;;16.08;69.82
58367;BME280;57745;42.524;12.052;2024-03-29T03:48:02;96275.56;;;16.21;69.28
58367;BME280;57745;42.524;12.052;2024-03-29T03:50:28;96275.56;;;16.21;69.15
58367;BME280;57745;42.524;12.052;2024-03-29T03:52:55;96271.69;;;16.12;69.27
58367;BME280;57745;42.524;12.052;2024-03-29T03:55:21;96275.81;;;16.08;69.57
58367;BME280;57745;42.524;12.052;2024-03-29T03:57:46;96267.09;;;16.19;69.04
58367;BME280;57745;42.524;12.052;2024-03-29T04:00:12;96276.63;;;16.23;68.83
58367;BME280;57745;42.524;12.052;2024-03-29T04:02:38;96266.56;;;16.29;68.58
58367;BME280;57745;42.524;12.052;2024-03-29T04:05:03;96273.75;;;16.03;69.60
58367;BME280;57745;42.524;12.052;2024-03-29T04:07:29;96276.25;;;16.15;69.37
58367;BME280;57745;42.524;12.052;2024-03-29T04:09:54;96272.91;;;16.11;69.48
58367;BME280;57745;42.524;12.052;2024-03-29T04:12:20;96270.34;;;15.84;70.72
58367;BME280;57745;42.524;12.052;2024-03-29T04:14:45;96268.38;;;16.08;69.65
58367;BME280;57745;42.524;12.052;2024-03-29T04:17:11;96270.25;;;16.02;70.12
58367;BME280;57745;42.524;12.052;2024-03-29T04:19:36;96271.75;;;16.03;69.77
58367;BME280;57745;42.524;12.052;2024-03-29T04:22:02;96274.38;;;15.98;69.88
58367;BME280;57745;42.524;12.052;2024-03-29T04:24:30;96273.44;;;16.01;70.01
58367;BME280;57745;42.524;12.052;2024-03-29T04:26:56;96281.03;;;16.06;69.93
58367;BME280;57745;42.524;12.052;2024-03-29T04:29:22;96277.09;;;15.98;70.14
58367;BME280;57745;42.524;12.052;2024-03-29T04:31:47;96274.78;;;16.05;69.74
58367;BME280;57745;42.524;12.052;2024-03-29T04:34:13;96274.03;;;16.05;69.74
58367;BME280;57745;42.524;12.052;2024-03-29T04:36:38;96276.41;;;15.88;69.95
58367;BME280;57745;42.524;12.052;2024-03-29T04:39:04;96280.72;;;15.80;70.20
58367;BME280;57745;42.524;12.052;2024-03-29T04:41:30;96275.47;;;15.91;70.22
58367;BME280;57745;42.524;12.052;2024-03-29T04:44:02;96278.50;;;15.93;69.79
58367;BME280;57745;42.524;12.052;2024-03-29T04:46:32;96284.50;;;16.06;68.98
58367;BME280;57745;42.524;12.052;2024-03-29T04:48:57;96284.91;;;15.90;69.90
58367;BME280;57745;42.524;12.052;2024-03-29T04:51:23;96298.34;;;16.03;68.97
58367;BME280;57745;42.524;12.052;2024-03-29T04:53:49;96288.72;;;16.07;68.90
58367;BME280;57745;42.524;12.052;2024-03-29T04:56:14;96301.38;;;16.05;68.95
58367;BME280;57745;42.524;12.052;2024-03-29T04:58:40;96297.75;;;15.99;69.15
58367;BME280;57745;42.524;12.052;2024-03-29T05:01:06;96299.94;;;15.95;68.96
58367;BME280;57745;42.524;12.052;2024-03-29T05:03:32;96309.53;;;15.90;69.61
58367;BME280;57745;42.524;12.052;2024-03-29T05:05:57;96317.13;;;15.86;69.54
58367;BME280;57745;42.524;12.052;2024-03-29T05:08:23;96316.44;;;16.00;69.00
58367;BME280;57745;42.524;12.052;2024-03-29T05:10:50;96320.47;;;15.90;69.22
58367;BME280;57745;42.524;12.052;2024-03-29T05:13:16;96318.59;;;15.96;69.03
58367;BME280;57745;42.524;12.052;2024-03-29T05:15:42;96317.78;;;15.81;69.32
58367;BME280;57745;42.524;12.052;2024-03-29T05:18:08;96314.22;;;15.90;69.04
58367;BME280;57745;42.524;12.052;2024-03-29T05:20:34;96318.13;;;15.98;68.19
58367;BME280;57745;42.524;12.052;2024-03-29T05:22:59;96320.75;;;15.92;68.82
58367;BME280;57745;42.524;12.052;2024-03-29T05:25:25;96328.31;;;15.97;68.05
58367;BME280;57745;42.524;12.052;2024-03-29T05:27:51;96330.63;;;15.90;68.32
58367;BME280;57745;42.524;12.052;2024-03-29T05:30:17;96336.72;;;15.94;67.83
58367;BME280;57745;42.524;12.052;2024-03-29T05:32:42;96334.53;;;15.98;68.05
58367;BME280;57745;42.524;12.052;2024-03-29T05:35:09;96331.69;;;15.92;68.28
58367;BME280;57745;42.524;12.052;2024-03-29T05:37:35;96338.78;;;15.99;67.76
58367;BME280;57745;42.524;12.052;2024-03-29T05:40:01;96343.19;;;16.05;67.43
58367;BME280;57745;42.524;12.052;2024-03-29T05:42:31;96335.34;;;15.89;67.29
58367;BME280;57745;42.524;12.052;2024-03-29T05:44:56;96336.81;;;15.99;66.95
58367;BME280;57745;42.524;12.052;2024-03-29T05:47:22;96335.06;;;15.87;67.31
58367;BME280;57745;42.524;12.052;2024-03-29T05:49:49;96333.97;;;15.94;67.04
58367;BME280;57745;42.524;12.052;2024-03-29T05:52:15;96333.91;;;16.03;66.29
58367;BME280;57745;42.524;12.052;2024-03-29T05:54:42;96344.63;;;15.92;66.87
58367;BME280;57745;42.524;12.052;2024-03-29T05:57:07;96343.50;;;15.98;66.26
58367;BME280;57745;42.524;12.052;2024-03-29T05:59:34;96349.69;;;16.08;66.14
58367;BME280;57745;42.524;12.052;2024-03-29T06:01:59;96334.97;;;16.05;66.31
58367;BME280;57745;42.524;12.052;2024-03-29T06:04:25;96339.50;;;16.08;65.97
58367;BME280;57745;42.524;12.052;2024-03-29T06:07:00;96343.72;;;16.19;65.17
58367;BME280;57745;42.524;12.052;2024-03-29T06:09:25;96343.59;;;16.37;65.32
58367;BME280;57745;42.524;12.052;2024-03-29T06:11:53;96333.78;;;16.21;65.87
58367;BME280;57745;42.524;12.052;2024-03-29T06:14:18;96330.31;;;16.21;65.58
58367;BME280;57745;42.524;12.052;2024-03-29T06:17:02;96333.09;;;16.11;65.84
58367;BME280;57745;42.524;12.052;2024-03-29T06:19:46;96332.19;;;16.14;65.53
58367;BME280;57745;42.524;12.052;2024-03-29T06:22:13;96332.50;;;16.07;66.07
58367;BME280;57745;42.524;12.052;2024-03-29T06:24:38;96336.97;;;16.29;65.41
58367;BME280;57745;42.524;12.052;2024-03-29T06:27:05;96344.47;;;16.19;65.99
58367;BME280;57745;42.524;12.052;2024-03-29T06:29:30;96340.97;;;16.19;66.39
58367;BME280;57745;42.524;12.052;2024-03-29T06:31:55;96326.75;;;16.05;66.43
58367;BME280;57745;42.524;12.052;2024-03-29T06:34:21;96322.00;;;16.15;66.21
58367;BME280;57745;42.524;12.052;2024-03-29T06:36:47;96328.78;;;16.20;65.93
58367;BME280;57745;42.524;12.052;2024-03-29T06:39:13;96338.25;;;16.19;65.93
58367;BME280;57745;42.524;12.052;2024-03-29T06:41:38;96330.97;;;16.15;65.82
58367;BME280;57745;42.524;12.052;2024-03-29T06:44:04;96327.94;;;16.13;66.45
58367;BME280;57745;42.524;12.052;2024-03-29T06:46:29;96336.44;;;16.15;65.87
58367;BME280;57745;42.524;12.052;2024-03-29T06:48:55;96344.75;;;16.21;65.97
58367;BME280;57745;42.524;12.052;2024-03-29T06:51:20;96342.13;;;16.27;65.56
58367;BME280;57745;42.524;12.052;2024-03-29T06:53:46;96342.06;;;16.36;65.17
58367;BME280;57745;42.524;12.052;2024-03-29T06:56:11;96348.75;;;16.11;66.29
58367;BME280;57745;42.524;12.052;2024-03-29T06:58:37;96348.22;;;16.22;65.52
58367;BME280;57745;42.524;12.052;2024-03-29T07:01:02;96346.97;;;16.32;64.63
58367;BME280;57745;42.524;12.052;2024-03-29T07:03:28;96345.84;;;16.38;64.67
58367;BME280;57745;42.524;12.052;2024-03-29T07:05:53;96345.69;;;16.18;65.24
58367;BME280;57745;42.524;12.052;2024-03-29T07:08:19;96331.66;;;16.25;65.08
58367;BME280;57745;42.524;12.052;2024-03-29T07:10:44;96335.66;;;16.39;64.82
58367;BME280;57745;42.524;12.052;2024-03-29T07:13:10;96329.59;;;16.35;65.41
58367;BME280;57745;42.524;12.052;2024-03-29T07:15:36;96324.13;;;16.35;65.47
58367;BME280;57745;42.524;12.052;2024-03-29T07:18:02;96333.09;;;16.35;65.36
58367;BME280;57745;42.524;12.052;2024-03-29T07:20:30;96329.09;;;16.22;65.41
58367;BME280;57745;42.524;12.052;2024-03-29T07:22:55;96334.28;;;16.43;64.45
58367;BME280;57745;42.524;12.052;2024-03-29T07:25:21;96331.00;;;16.54;64.89
58367;BME280;57745;42.524;12.052;2024-03-29T07:27:47;96330.88;;;16.48;64.80
58367;BME280;57745;42.524;12.052;2024-03-29T07:30:13;96335.31;;;16.46;65.15
58367;BME280;57745;42.524;12.052;2024-03-29T07:32:39;96321.09;;;16.33;65.77
58367;BME280;57745;42.524;12.052;2024-03-29T07:35:05;96324.44;;;16.37;65.58
58367;BME280;57745;42.524;12.052;2024-03-29T07:37:30;96325.09;;;16.70;64.29
58367;BME280;57745;42.524;12.052;2024-03-29T07:39:56;96326.75;;;16.53;65.13
58367;BME280;57745;42.524;12.052;2024-03-29T07:42:21;96334.22;;;16.52;64.76
58367;BME280;57745;42.524;12.052;2024-03-29T07:44:47;96331.81;;;16.45;64.74
58367;BME280;57745;42.524;12.052;2024-03-29T07:47:13;96328.97;;;16.64;64.64
58367;BME280;57745;42.524;12.052;2024-03-29T07:49:39;96332.97;;;16.77;63.90
58367;BME280;57745;42.524;12.052;2024-03-29T07:52:05;96338.16;;;16.51;64.10
58367;BME280;57745;42.524;12.052;2024-03-29T07:54:32;96340.59;;;16.73;63.82
58367;BME280;57745;42.524;12.052;2024-03-29T07:56:58;96346.75;;;16.68;63.67
58367;BME280;57745;42.524;12.052;2024-03-29T07:59:23;96353.28;;;16.62;64.10
58367;BME280;57745;42.524;12.052;2024-03-29T08:01:49;96342.34;;;16.62;63.97
58367;BME280;57745;42.524;12.052;2024-03-29T08:04:14;96343.75;;;16.57;64.17
58367;BME280;57745;42.524;12.052;2024-03-29T08:06:40;96351.28;;;16.71;63.41
58367;BME280;57745;42.524;12.052;2024-03-29T08:09:05;96355.28;;;16.85;63.06
58367;BME280;57745;42.524;12.052;2024-03-29T08:11:31;96357.78;;;16.74;63.34
58367;BME280;57745;42.524;12.052;2024-03-29T08:13:56;96351.03;;;16.60;63.01
58367;BME280;57745;42.524;12.052;2024-03-29T08:16:22;96364.84;;;16.90;62.23
58367;BME280;57745;42.524;12.052;2024-03-29T08:18:47;96357.78;;;16.74;62.45
58367;BME280;57745;42.524;12.052;2024-03-29T08:21:13;96355.06;;;16.74;62.60
58367;BME280;57745;42.524;12.052;2024-03-29T08:23:42;96349.75;;;16.70;62.35
58367;BME280;57745;42.524;12.052;2024-03-29T08:26:12;96350.13;;;16.63;62.32
58367;BME280;57745;42.524;12.052;2024-03-29T08:28:38;96357.53;;;16.86;61.32
58367;BME280;57745;42.524;12.052;2024-03-29T08:31:06;96361.28;;;16.74;61.90
58367;BME280;57745;42.524;12.052;2024-03-29T08:33:34;96359.59;;;16.77;62.14
58367;BME280;57745;42.524;12.052;2024-03-29T08:36:06;96359.19;;;16.69;61.73
58367;BME280;57745;42.524;12.052;2024-03-29T08:38:33;96362.53;;;16.73;61.45
58367;BME280;57745;42.524;12.052;2024-03-29T08:40:59;96360.88;;;16.91;60.81
58367;BME280;57745;42.524;12.052;2024-03-29T08:43:24;96366.53;;;16.87;61.04
58367;BME280;57745;42.524;12.052;2024-03-29T08:45:50;96365.78;;;17.01;60.78
58367;BME280;57745;42.524;12.052;2024-03-29T08:48:15;96368.50;;;16.86;61.12
58367;BME280;57745;42.524;12.052;2024-03-29T08:50:41;96372.13;;;16.93;60.78
58367;BME280;57745;42.524;12.052;2024-03-29T08:53:08;96368.91;;;17.09;60.08
58367;BME280;57745;42.524;12.052;2024-03-29T08:55:34;96357.19;;;16.94;60.34
58367;BME280;57745;42.524;12.052;2024-03-29T08:58:02;96351.63;;;17.03;59.93
58367;BME280;57745;42.524;12.052;2024-03-29T09:00:29;96352.88;;;17.16;59.76
58367;BME280;57745;42.524;12.052;2024-03-29T09:02:55;96351.72;;;17.08;60.06
58367;BME280;57745;42.524;12.052;2024-03-29T09:05:21;96341.81;;;17.11;60.20
58367;BME280;57745;42.524;12.052;2024-03-29T09:07:47;96349.44;;;17.07;60.51
58367;BME280;57745;42.524;12.052;2024-03-29T09:10:13;96357.13;;;17.03;60.71
58367;BME280;57745;42.524;12.052;2024-03-29T09:12:39;96349.19;;;17.05;60.42
58367;BME280;57745;42.524;12.052;2024-03-29T09:15:05;96348.91;;;17.17;59.49
58367;BME280;57745;42.524;12.052;2024-03-29T09:17:39;96335.47;;;17.05;59.59
58367;BME280;57745;42.524;12.052;2024-03-29T09:20:05;96333.75;;;17.07;59.10
58367;BME280;57745;42.524;12.052;2024-03-29T09:22:30;96343.13;;;17.01;58.92
58367;BME280;57745;42.524;12.052;2024-03-29T09:24:56;96334.72;;;17.04;59.05
58367;BME280;57745;42.524;12.052;2024-03-29T09:27:21;96332.75;;;17.05;59.19
58367;BME280;57745;42.524;12.052;2024-03-29T09:29:50;96327.47;;;17.16;58.36
58367;BME280;57745;42.524;12.052;2024-03-29T09:32:15;96317.34;;;17.22;58.41
58367;BME280;57745;42.524;12.052;2024-03-29T09:34:45;96319.03;;;17.34;57.71
58367;BME280;57745;42.524;12.052;2024-03-29T09:37:10;96324.72;;;17.16;58.64
58367;BME280;57745;42.524;12.052;2024-03-29T09:39:36;96326.22;;;17.17;58.84
58367;BME280;57745;42.524;12.052;2024-03-29T09:42:06;96331.69;;;17.32;58.28
58367;BME280;57745;42.524;12.052;2024-03-29T09:44:33;96320.94;;;17.28;58.70
58367;BME280;57745;42.524;12.052;2024-03-29T09:47:04;96309.03;;;17.16;58.55
58367;BME280;57745;42.524;12.052;2024-03-29T09:49:33;96316.97;;;17.29;58.24
58367;BME280;57745;42.524;12.052;2024-03-29T09:51:59;96306.38;;;17.22;58.47
58367;BME280;57745;42.524;12.052;2024-03-29T09:54:29;96299.94;;;17.25;58.20
58367;BME280;57745;42.524;12.052;2024-03-29T09:56:58;96299.00;;;17.28;58.49
58367;BME280;57745;42.524;12.052;2024-03-29T09:59:24;96298.06;;;17.16;58.75
58367;BME280;57745;42.524;12.052;2024-03-29T10:01:51;96306.00;;;17.29;58.00
58367;BME280;57745;42.524;12.052;2024-03-29T10:04:20;96295.22;;;17.26;58.03
58367;BME280;57745;42.524;12.052;2024-03-29T10:06:47;96287.84;;;17.32;58.26
58367;BME280;57745;42.524;12.052;2024-03-29T10:09:18;96281.13;;;17.33;57.58
58367;BME280;57745;42.524;12.052;2024-03-29T10:11:45;96283.50;;;17.25;57.74
58367;BME280;57745;42.524;12.052;2024-03-29T10:14:10;96287.19;;;17.37;57.67
58367;BME280;57745;42.524;12.052;2024-03-29T10:16:36;96277.25;;;17.39;57.69
58367;BME280;57745;42.524;12.052;2024-03-29T10:19:02;96281.69;;;17.37;58.04
58367;BME280;57745;42.524;12.052;2024-03-29T10:21:28;96288.88;;;17.34;57.51
58367;BME280;57745;42.524;12.052;2024-03-29T10:23:54;96274.22;;;17.37;57.75
58367;BME280;57745;42.524;12.052;2024-03-29T10:26:20;96279.81;;;17.43;57.66
58367;BME280;57745;42.524;12.052;2024-03-29T10:28:47;96276.84;;;17.46;58.47
58367;BME280;57745;42.524;12.052;2024-03-29T10:31:13;96285.84;;;17.47;58.36
58367;BME280;57745;42.524;12.052;2024-03-29T10:33:42;96273.56;;;17.42;58.42
58367;BME280;57745;42.524;12.052;2024-03-29T10:36:08;96279.88;;;17.48;58.35
58367;BME280;57745;42.524;12.052;2024-03-29T10:38:37;96276.09;;;17.46;58.80
58367;BME280;57745;42.524;12.052;2024-03-29T10:41:04;96276.47;;;17.53;58.84
58367;BME280;57745;42.524;12.052;2024-03-29T10:43:32;96272.22;;;17.52;59.37
58367;BME280;57745;42.524;12.052;2024-03-29T10:45:59;96285.00;;;17.55;59.13
58367;BME280;57745;42.524;12.052;2024-03-29T10:48:26;96285.25;;;17.57;59.12
58367;BME280;57745;42.524;12.052;2024-03-29T10:50:55;96282.63;;;17.48;59.91
58367;BME280;57745;42.524;12.052;2024-03-29T10:53:27;96275.72;;;17.53;59.65
58367;BME280;57745;42.524;12.052;2024-03-29T10:55:58;96267.03;;;17.54;59.82
58367;BME280;57745;42.524;12.052;2024-03-29T10:58:33;96286.28;;;17.60;59.51
58367;BME280;57745;42.524;12.052;2024-03-29T11:01:01;96268.31;;;17.59;59.70
58367;BME280;57745;42.524;12.052;2024-03-29T11:03:37;96278.00;;;17.54;60.08
58367;BME280;57745;42.524;12.052;2024-03-29T11:06:05;96269.50;;;17.52;60.23
58367;BME280;57745;42.524;12.052;2024-03-29T11:08:36;96270.59;;;17.60;60.12
58367;BME280;57745;42.524;12.052;2024-03-29T11:11:11;96268.31;;;17.59;60.09
58367;BME280;57745;42.524;12.052;2024-03-29T11:14:03;96267.38;;;17.62;59.34
58367;BME280;57745;42.524;12.052;2024-03-29T11:16:29;96271.75;;;17.54;59.69
58367;BME280;57745;42.524;12.052;2024-03-29T11:18:55;96267.75;;;17.70;59.15
58367;BME280;57745;42.524;12.052;2024-03-29T11:21:21;96270.88;;;17.77;58.97
58367;BME280;57745;42.524;12.052;2024-03-29T11:23:51;96261.94;;;17.82;58.54
58367;BME280;57745;42.524;12.052;2024-03-29T11:26:18;96252.16;;;17.61;59.25
58367;BME280;57745;42.524;12.052;2024-03-29T11:28:51;96259.06;;;17.71;59.40
58367;BME280;57745;42.524;12.052;2024-03-29T11:31:17;96265.28;;;17.72;60.12
58367;BME280;57745;42.524;12.052;2024-03-29T11:36:13;96264.75;;;17.68;58.92
58367;BME280;57745;42.524;12.052;2024-03-29T11:38:41;96264.53;;;17.56;58.67
58367;BME280;57745;42.524;12.052;2024-03-29T11:41:15;96236.34;;;17.71;58.58
58367;BME280;57745;42.524;12.052;2024-03-29T11:43:41;96234.19;;;17.60;58.66
58367;BME280;57745;42.524;12.052;2024-03-29T11:46:13;96230.53;;;17.63;58.56
58367;BME280;57745;42.524;12.052;2024-03-29T11:48:39;96229.31;;;17.64;58.44
58367;BME280;57745;42.524;12.052;2024-03-29T11:51:12;96227.84;;;17.69;57.92
58367;BME280;57745;42.524;12.052;2024-03-29T11:53:39;96230.88;;;17.71;57.74
58367;BME280;57745;42.524;12.052;2024-03-29T11:56:05;96233.13;;;17.72;57.62
58367;BME280;57745;42.524;12.052;2024-03-29T11:58:33;96221.81;;;17.65;57.75
58367;BME280;57745;42.524;12.052;2024-03-29T12:00:59;96232.63;;;17.53;58.09
58367;BME280;57745;42.524;12.052;2024-03-29T12:03:27;96234.03;;;17.64;57.34
58367;BME280;57745;42.524;12.052;2024-03-29T12:05:55;96227.00;;;17.63;57.42
58367;BME280;57745;42.524;12.052;2024-03-29T12:08:33;96222.19;;;17.57;57.29
58367;BME280;57745;42.524;12.052;2024-03-29T12:11:00;96219.44;;;17.57;57.13
58367;BME280;57745;42.524;12.052;2024-03-29T12:13:26;96215.75;;;17.60;56.69
58367;BME280;57745;42.524;12.052;2024-03-29T12:15:52;96210.25;;;17.60;56.77
58367;BME280;57745;42.524;12.052;2024-03-29T12:18:22;96207.63;;;17.66;56.91
58367;BME280;57745;42.524;12.052;2024-03-29T12:20:48;96199.66;;;17.68;56.71
58367;BME280;57745;42.524;12.052;2024-03-29T12:23:18;96194.81;;;17.78;56.50
58367;BME280;57745;42.524;12.052;2024-03-29T12:25:44;96199.78;;;17.59;56.40
58367;BME280;57745;42.524;12.052;2024-03-29T12:28:10;96192.75;;;17.73;56.50
58367;BME280;57745;42.524;12.052;2024-03-29T12:30:37;96198.66;;;17.66;56.86
58367;BME280;57745;42.524;12.052;2024-03-29T12:35:30;96210.56;;;17.63;56.45
58367;BME280;57745;42.524;12.052;2024-03-29T12:37:58;96195.91;;;17.66;56.30
58367;BME280;57745;42.524;12.052;2024-03-29T12:40:25;96204.50;;;17.58;56.30
58367;BME280;57745;42.524;12.052;2024-03-29T12:42:51;96201.13;;;17.84;56.13
58367;BME280;57745;42.524;12.052;2024-03-29T12:45:20;96192.03;;;17.57;56.05
58367;BME280;57745;42.524;12.052;2024-03-29T12:47:47;96185.47;;;17.70;55.79
58367;BME280;57745;42.524;12.052;2024-03-29T12:50:24;96188.13;;;17.79;55.61
58367;BME280;57745;42.524;12.052;2024-03-29T12:52:50;96186.47;;;17.67;55.90
58367;BME280;57745;42.524;12.052;2024-03-29T12:55:18;96188.63;;;17.83;55.47